createdAt,value
2018-05-01T00:02:19.394Z,66.50
2018-05-01T00:04:46.910Z,66.90
2018-05-01T00:07:14.385Z,67.20
2018-05-01T00:09:42.327Z,67.00
2018-05-01T00:12:09.788Z,66.60
2018-05-01T00:14:37.583Z,66.30
2018-05-01T00:17:05.155Z,65.10
2018-05-01T00:19:33.263Z,65.70
2018-05-01T00:22:00.773Z,66.20
2018-05-01T00:24:28.257Z,65.70
2018-05-01T00:26:56.486Z,65.10
2018-05-01T00:29:24.005Z,65.00
2018-05-01T00:31:51.486Z,64.80
2018-05-01T00:34:18.971Z,64.70
2018-05-01T00:36:46.435Z,64.40
2018-05-01T00:39:14.091Z,64.80
2018-05-01T00:41:43.058Z,64.30
2018-05-01T00:44:10.519Z,64.20
2018-05-01T00:46:38.003Z,64.60
2018-05-01T00:49:05.471Z,65.20
2018-05-01T00:51:33.046Z,65.10
2018-05-01T00:54:00.533Z,64.80
2018-05-01T00:56:29.672Z,64.40
2018-05-01T00:58:59.179Z,64.50
2018-05-01T01:01:26.727Z,64.50
2018-05-01T01:03:54.207Z,64.40
2018-05-01T01:06:22.435Z,64.10
2018-05-01T01:08:49.904Z,64.10
2018-05-01T01:11:17.372Z,63.50
2018-05-01T01:13:44.827Z,63.00
2018-05-01T01:16:12.387Z,62.40
2018-05-01T01:18:39.946Z,62.30
2018-05-01T01:21:07.571Z,60.40
2018-05-01T01:23:35.043Z,60.20
2018-05-01T01:26:02.502Z,60.50
2018-05-01T01:28:29.963Z,58.70
2018-05-01T01:30:57.446Z,58.90
2018-05-01T01:33:24.894Z,58.20
2018-05-01T01:35:51.951Z,57.60
2018-05-01T01:38:18.996Z,57.90
2018-05-01T01:40:46.097Z,57.80
2018-05-01T01:43:14.257Z,57.60
2018-05-01T01:45:41.324Z,57.80
2018-05-01T01:48:08.302Z,57.70
2018-05-01T01:50:35.280Z,57.10
2018-05-01T01:53:03.015Z,56.50
2018-05-01T01:55:30.498Z,56.40
2018-05-01T01:57:58.333Z,56.40
2018-05-01T02:00:25.383Z,56.30
2018-05-01T02:02:52.353Z,56.20
2018-05-01T02:05:20.404Z,56.00
2018-05-01T02:07:47.476Z,56.00
2018-05-01T02:10:15.210Z,56.00
2018-05-01T02:12:42.196Z,56.00
2018-05-01T02:15:09.159Z,56.20
2018-05-01T02:17:36.147Z,56.50
2018-05-01T02:20:03.111Z,56.30
2018-05-01T02:22:30.951Z,56.50
2018-05-01T02:24:57.975Z,56.40
2018-05-01T02:27:25.047Z,56.70
2018-05-01T02:29:52.018Z,57.00
2018-05-01T02:32:19.764Z,57.00
2018-05-01T02:34:47.244Z,56.90
2018-05-01T02:37:14.987Z,57.40
2018-05-01T02:39:41.997Z,57.40
2018-05-01T02:42:08.963Z,58.00
2018-05-01T02:44:35.995Z,57.40
2018-05-01T02:47:03.042Z,57.30
2018-05-01T02:49:30.015Z,57.30
2018-05-01T02:51:57.005Z,57.40
2018-05-01T02:54:23.992Z,57.70
2018-05-01T02:56:50.951Z,57.70
2018-05-01T02:59:17.969Z,58.00
2018-05-01T03:01:44.931Z,57.50
2018-05-01T03:04:11.907Z,57.40
2018-05-01T03:06:39.703Z,57.10
2018-05-01T03:09:06.680Z,57.00
2018-05-01T03:11:33.648Z,56.60
2018-05-01T03:14:01.534Z,56.80
2018-05-01T03:16:28.502Z,56.60
2018-05-01T03:18:55.481Z,56.10
2018-05-01T03:21:22.448Z,56.30
2018-05-01T03:23:49.414Z,56.10
2018-05-01T03:26:16.485Z,56.00
2018-05-01T03:28:43.467Z,55.80
2018-05-01T03:31:10.433Z,56.10
2018-05-01T03:33:38.240Z,57.40
2018-05-01T03:36:05.200Z,56.80
2018-05-01T03:38:32.178Z,57.00
2018-05-01T03:41:00.767Z,57.40
2018-05-01T03:43:27.739Z,57.40
2018-05-01T03:45:54.707Z,57.20
2018-05-01T03:48:21.692Z,57.50
2018-05-01T03:50:48.655Z,57.80
2018-05-01T03:53:16.386Z,57.70
2018-05-01T03:55:43.446Z,57.60
2018-05-01T03:58:10.447Z,57.50
2018-05-01T04:00:37.411Z,57.50
2018-05-01T04:03:04.377Z,57.80
2018-05-01T04:05:31.431Z,57.50
2018-05-01T04:07:58.475Z,57.60
2018-05-01T04:10:25.451Z,58.00
2018-05-01T04:12:52.425Z,57.90
2018-05-01T04:15:19.398Z,57.90
2018-05-01T04:17:46.497Z,58.00
2018-05-01T04:20:13.501Z,58.30
2018-05-01T04:22:40.462Z,57.90
2018-05-01T04:25:07.487Z,57.90
2018-05-01T04:27:35.214Z,57.40
2018-05-01T04:30:02.195Z,57.70
2018-05-01T04:32:29.263Z,57.40
2018-05-01T04:34:56.299Z,57.60
2018-05-01T04:37:23.342Z,58.70
2018-05-01T04:39:50.324Z,58.50
2018-05-01T04:42:18.150Z,58.10
2018-05-01T04:44:45.132Z,58.00
2018-05-01T04:47:12.858Z,58.20
2018-05-01T04:49:41.331Z,58.10
2018-05-01T04:52:08.389Z,58.00
2018-05-01T04:54:35.442Z,58.20
2018-05-01T04:57:02.440Z,58.10
2018-05-01T04:59:29.427Z,57.10
2018-05-01T05:01:56.393Z,57.30
2018-05-01T05:04:24.151Z,57.30
2018-05-01T05:06:51.883Z,57.10
2018-05-01T05:09:18.951Z,57.00
2018-05-01T05:11:45.930Z,56.90
2018-05-01T05:14:12.898Z,56.70
2018-05-01T05:16:39.882Z,57.00
2018-05-01T05:19:06.831Z,57.10
2018-05-01T05:21:34.843Z,56.80
2018-05-01T05:24:01.822Z,56.80
2018-05-01T05:26:28.794Z,56.70
2018-05-01T05:28:55.766Z,57.00
2018-05-01T05:31:23.594Z,56.00
2018-05-01T05:33:50.638Z,56.00
2018-05-01T05:36:17.806Z,56.10
2018-05-01T05:38:44.943Z,55.90
2018-05-01T05:41:12.110Z,56.10
2018-05-01T05:43:39.887Z,55.30
2018-05-01T05:46:07.620Z,55.10
2018-05-01T05:48:34.671Z,55.10
2018-05-01T05:51:01.714Z,55.00
2018-05-01T05:53:29.474Z,54.60
2018-05-01T05:55:56.523Z,54.50
2018-05-01T05:58:24.260Z,54.10
2018-05-01T06:00:51.231Z,54.20
2018-05-01T06:03:18.236Z,54.10
2018-05-01T06:05:46.034Z,53.70
2018-05-01T06:08:12.998Z,53.50
2018-05-01T06:10:39.973Z,53.60
2018-05-01T06:13:06.936Z,53.60
2018-05-01T06:15:34.061Z,53.90
2018-05-01T06:18:01.791Z,53.20
2018-05-01T06:20:28.763Z,53.10
2018-05-01T06:22:56.491Z,52.40
2018-05-01T06:25:23.484Z,52.40
2018-05-01T06:27:50.460Z,52.00
2018-05-01T06:30:17.426Z,52.30
2018-05-01T06:32:44.395Z,52.50
2018-05-01T06:35:12.139Z,52.10
2018-05-01T06:37:40.334Z,52.10
2018-05-01T06:40:07.363Z,51.60
2018-05-01T06:42:34.411Z,51.40
2018-05-01T06:45:01.464Z,51.50
2018-05-01T06:47:28.443Z,51.40
2018-05-01T06:49:55.443Z,51.10
2018-05-01T06:52:22.419Z,51.50
2018-05-01T06:54:50.227Z,52.10
2018-05-01T06:57:17.206Z,52.00
2018-05-01T06:59:44.171Z,51.80
2018-05-01T07:02:12.378Z,52.20
2018-05-01T07:04:39.373Z,52.20
2018-05-01T07:07:06.339Z,51.60
2018-05-01T07:09:34.179Z,52.00
2018-05-01T07:12:01.228Z,51.90
2018-05-01T07:14:28.199Z,52.00
2018-05-01T07:16:55.990Z,52.10
2018-05-01T07:19:22.979Z,52.10
2018-05-01T07:21:49.949Z,52.30
2018-05-01T07:24:17.688Z,51.60
2018-05-01T07:26:44.739Z,51.50
2018-05-01T07:29:13.402Z,51.80
2018-05-01T07:31:40.463Z,51.80
2018-05-01T07:34:07.435Z,51.40
2018-05-01T07:36:35.180Z,51.10
2018-05-01T07:39:02.190Z,51.10
2018-05-01T07:41:29.163Z,51.00
2018-05-01T07:43:56.542Z,52.10
2018-05-01T07:46:24.280Z,51.20
2018-05-01T07:48:51.250Z,51.20
2018-05-01T07:51:18.987Z,51.30
2018-05-01T07:53:46.008Z,51.20
2018-05-01T07:56:12.978Z,51.00
2018-05-01T07:58:40.038Z,51.50
2018-05-01T08:01:07.005Z,50.10
2018-05-01T08:03:34.771Z,51.10
2018-05-01T08:06:01.741Z,51.10
2018-05-01T08:08:28.723Z,51.50
2018-05-01T08:10:55.681Z,50.60
2018-05-01T08:13:22.727Z,50.80
2018-05-01T08:15:49.714Z,51.40
2018-05-01T08:18:16.691Z,50.60
2018-05-01T08:20:43.754Z,50.60
2018-05-01T08:23:10.723Z,50.50
2018-05-01T08:25:38.467Z,50.60
2018-05-01T08:28:05.439Z,50.50
2018-05-01T08:30:33.221Z,50.90
2018-05-01T08:33:00.586Z,50.90
2018-05-01T08:35:27.551Z,50.70
2018-05-01T08:37:54.572Z,49.60
2018-05-01T08:40:21.539Z,49.20
2018-05-01T08:42:48.510Z,49.10
2018-05-01T08:45:17.398Z,48.40
2018-05-01T08:47:44.460Z,48.40
2018-05-01T08:50:11.427Z,48.90
2018-05-01T08:52:38.399Z,49.20
2018-05-01T08:55:05.364Z,48.70
2018-05-01T08:57:32.433Z,48.80
2018-05-01T08:59:59.417Z,49.40
2018-05-01T09:02:26.388Z,49.40
2018-05-01T09:04:53.629Z,48.60
2018-05-01T09:07:20.616Z,48.40
2018-05-01T09:09:47.631Z,49.00
2018-05-01T09:12:14.611Z,47.80
2018-05-01T09:14:41.587Z,48.50
2018-05-01T09:17:09.325Z,48.20
2018-05-01T09:19:36.286Z,48.20
2018-05-01T09:22:04.040Z,48.10
2018-05-01T09:24:31.033Z,48.10
2018-05-01T09:26:58.055Z,45.40
2018-05-01T09:29:25.026Z,44.90
2018-05-01T09:31:52.088Z,45.20
2018-05-01T09:34:19.058Z,44.30
2018-05-01T09:36:46.075Z,44.70
2018-05-01T09:39:13.310Z,44.50
2018-05-01T09:41:40.283Z,45.10
2018-05-01T09:44:07.353Z,45.60
2018-05-01T09:46:34.456Z,44.50
2018-05-01T09:49:01.459Z,44.50
2018-05-01T09:51:29.305Z,43.50
2018-05-01T09:53:58.033Z,43.40
2018-05-01T09:56:26.035Z,43.40
2018-05-01T09:58:53.778Z,43.10
2018-05-01T10:01:21.520Z,43.60
2018-05-01T10:03:49.873Z,41.50
2018-05-01T10:06:17.369Z,41.40
2018-05-01T10:08:44.882Z,42.90
2018-05-01T10:11:12.342Z,41.90
2018-05-01T10:13:39.816Z,41.90
2018-05-01T10:16:08.066Z,41.90
2018-05-01T10:18:35.586Z,41.80
2018-05-01T10:21:03.047Z,41.60
2018-05-01T10:23:30.547Z,41.70
2018-05-01T10:25:58.783Z,42.50
2018-05-01T10:28:26.238Z,42.30
2018-05-01T10:30:53.738Z,41.60
2018-05-01T10:33:21.190Z,42.20
2018-05-01T10:35:48.654Z,42.20
2018-05-01T10:38:16.879Z,41.50
2018-05-01T10:40:44.475Z,41.30
2018-05-01T10:43:11.931Z,41.50
2018-05-01T10:45:39.570Z,41.30
2018-05-01T10:48:06.946Z,42.50
2018-05-01T10:50:34.435Z,41.60
2018-05-01T10:53:02.675Z,41.10
2018-05-01T10:55:30.162Z,41.00
2018-05-01T10:57:58.415Z,42.20
2018-05-01T11:00:25.882Z,42.10
2018-05-01T11:02:53.422Z,42.50
2018-05-01T11:05:20.908Z,41.40
2018-05-01T11:07:49.142Z,42.00
2018-05-01T11:10:16.602Z,41.90
2018-05-01T11:12:44.058Z,42.20
2018-05-01T11:15:11.523Z,41.90
2018-05-01T11:17:39.017Z,42.50
2018-05-01T11:20:07.256Z,42.00
2018-05-01T11:22:34.786Z,41.90
2018-05-01T11:25:02.250Z,42.90
2018-05-01T11:27:29.725Z,42.60
2018-05-01T11:29:57.184Z,42.00
2018-05-01T11:32:24.647Z,41.80
2018-05-01T11:34:52.127Z,41.70
2018-05-01T11:37:20.346Z,42.00
2018-05-01T11:39:47.864Z,41.90
2018-05-01T11:42:16.103Z,41.10
2018-05-01T11:44:43.722Z,40.40
2018-05-01T11:47:11.183Z,40.40
2018-05-01T11:49:38.659Z,41.30
2018-05-01T11:52:06.885Z,41.70
2018-05-01T11:54:35.101Z,41.00
2018-05-01T11:57:02.588Z,40.90
2018-05-01T11:59:30.125Z,41.20
2018-05-01T12:01:57.632Z,41.70
2018-05-01T12:04:25.998Z,42.00
2018-05-01T12:06:53.407Z,42.00
2018-05-01T12:09:20.899Z,43.10
2018-05-01T12:11:48.371Z,41.30
2018-05-01T12:14:15.828Z,40.40
2018-05-01T12:16:43.299Z,41.00
2018-05-01T12:19:11.539Z,40.80
2018-05-01T12:21:38.999Z,40.80
2018-05-01T12:24:06.452Z,41.60
2018-05-01T12:26:33.926Z,41.10
2018-05-01T12:29:02.159Z,41.40
2018-05-01T12:31:29.619Z,40.90
2018-05-01T12:33:57.087Z,41.70
2018-05-01T12:36:24.635Z,42.10
2018-05-01T12:38:52.088Z,42.80
2018-05-01T12:41:19.545Z,43.00
2018-05-01T12:43:47.062Z,43.30
2018-05-01T12:46:14.523Z,43.30
2018-05-01T12:48:42.077Z,44.00
2018-05-01T12:51:10.308Z,43.50
2018-05-01T12:53:37.771Z,42.50
2018-05-01T12:56:05.330Z,42.50
2018-05-01T12:58:32.791Z,42.40
2018-05-01T13:01:00.254Z,41.60
2018-05-01T13:03:27.723Z,41.80
2018-05-01T13:05:56.880Z,41.80
2018-05-01T13:08:24.307Z,41.80
2018-05-01T13:10:51.767Z,41.90
2018-05-01T13:13:19.310Z,42.00
2018-05-01T13:15:46.837Z,41.50
2018-05-01T13:18:14.307Z,41.70
2018-05-01T13:20:42.575Z,40.80
2018-05-01T13:23:10.084Z,40.80
2018-05-01T13:25:37.539Z,41.40
2018-05-01T13:28:05.031Z,40.80
2018-05-01T13:30:32.496Z,40.60
2018-05-01T13:33:00.731Z,40.40
2018-05-01T13:35:28.197Z,40.40
2018-05-01T13:37:55.773Z,40.20
2018-05-01T13:40:23.931Z,40.50
2018-05-01T13:42:51.392Z,40.40
2018-05-01T13:45:18.859Z,41.00
2018-05-01T13:47:46.316Z,40.90
2018-05-01T13:50:13.831Z,42.00
2018-05-01T13:52:41.335Z,41.50
2018-05-01T13:55:08.902Z,40.80
2018-05-01T13:57:37.175Z,40.10
2018-05-01T14:00:04.639Z,40.10
2018-05-01T14:02:32.863Z,40.80
2018-05-01T14:05:00.319Z,40.80
2018-05-01T14:07:27.796Z,40.90
2018-05-01T14:09:55.255Z,39.60
2018-05-01T14:12:22.793Z,40.80
2018-05-01T14:14:50.244Z,41.10
2018-05-01T14:17:17.753Z,40.60
2018-05-01T14:19:46.105Z,40.70
2018-05-01T14:22:13.636Z,40.70
2018-05-01T14:24:41.054Z,40.40
2018-05-01T14:27:08.510Z,39.80
2018-05-01T14:29:36.743Z,41.10
2018-05-01T14:32:04.223Z,41.10
2018-05-01T14:34:31.687Z,40.00
2018-05-01T14:36:59.241Z,39.80
2018-05-01T14:39:26.702Z,39.40
2018-05-01T14:41:55.673Z,40.40
2018-05-01T14:44:23.130Z,40.30
2018-05-01T14:46:50.589Z,38.70
2018-05-01T14:49:18.054Z,39.60
2018-05-01T14:51:45.523Z,39.40
2018-05-01T14:54:13.756Z,39.90
2018-05-01T14:56:41.308Z,39.80
2018-05-01T14:59:09.076Z,40.70
2018-05-01T15:01:36.576Z,41.10
2018-05-01T15:04:04.050Z,41.10
2018-05-01T15:06:32.295Z,40.30
2018-05-01T15:08:59.926Z,40.30
2018-05-01T15:11:27.478Z,39.60
2018-05-01T15:13:54.970Z,39.50
2018-05-01T15:16:22.452Z,40.40
2018-05-01T15:18:50.699Z,41.90
2018-05-01T15:21:18.162Z,41.30
2018-05-01T15:23:45.623Z,41.60
2018-05-01T15:26:13.186Z,41.60
2018-05-01T15:28:40.665Z,42.00
2018-05-01T15:31:08.911Z,40.60
2018-05-01T15:33:36.467Z,40.50
2018-05-01T15:36:03.927Z,40.70
2018-05-01T15:38:31.547Z,40.80
2018-05-01T15:40:59.006Z,40.70
2018-05-01T15:43:26.507Z,40.10
2018-05-01T15:45:53.974Z,40.60
2018-05-01T15:48:22.200Z,41.20
2018-05-01T15:50:49.726Z,40.50
2018-05-01T15:53:17.951Z,40.10
2018-05-01T15:55:45.418Z,40.10
2018-05-01T15:58:13.043Z,40.50
2018-05-01T16:00:40.505Z,40.40
2018-05-01T16:03:08.034Z,40.00
2018-05-01T16:05:35.494Z,40.50
2018-05-01T16:08:02.951Z,40.30
2018-05-01T16:10:30.406Z,40.20
2018-05-01T16:12:57.878Z,40.40
2018-05-01T16:15:25.444Z,41.00
2018-05-01T16:17:52.928Z,41.40
2018-05-01T16:20:20.406Z,41.00
2018-05-01T16:22:47.951Z,40.80
2018-05-01T16:25:15.409Z,39.70
2018-05-01T16:27:42.979Z,39.30
2018-05-01T16:30:10.447Z,39.60
2018-05-01T16:32:38.686Z,39.80
2018-05-01T16:35:06.180Z,39.80
2018-05-01T16:37:34.435Z,40.40
2018-05-01T16:40:02.055Z,40.30
2018-05-01T16:42:29.575Z,40.00
2018-05-01T16:44:57.803Z,39.60
2018-05-01T16:47:25.286Z,39.60
2018-05-01T16:49:52.742Z,40.00
2018-05-01T16:52:20.303Z,40.60
2018-05-01T16:54:47.758Z,40.30
2018-05-01T16:57:15.238Z,40.00
2018-05-01T16:59:43.474Z,39.60
2018-05-01T17:02:10.935Z,40.20
2018-05-01T17:04:38.506Z,40.00
2018-05-01T17:07:07.487Z,40.10
2018-05-01T17:09:35.061Z,40.10
2018-05-01T17:12:02.529Z,40.40
2018-05-01T17:14:30.017Z,40.80
2018-05-01T17:16:57.485Z,40.20
2018-05-01T17:19:24.957Z,40.30
2018-05-01T17:21:52.549Z,40.40
2018-05-01T17:24:20.013Z,40.80
2018-05-01T17:26:47.467Z,40.70
2018-05-01T17:29:15.860Z,41.10
2018-05-01T17:31:43.351Z,41.00
2018-05-01T17:34:10.909Z,41.00
2018-05-01T17:36:38.409Z,41.10
2018-05-01T17:39:05.960Z,41.30
2018-05-01T17:41:33.467Z,41.30
2018-05-01T17:44:00.931Z,40.70
2018-05-01T17:46:28.400Z,41.20
2018-05-01T17:48:55.868Z,40.80
2018-05-01T17:51:23.330Z,41.00
2018-05-01T17:53:50.811Z,40.70
2018-05-01T17:56:18.283Z,41.30
2018-05-01T17:58:46.543Z,40.90
2018-05-01T18:01:14.002Z,40.80
2018-05-01T18:03:41.467Z,41.10
2018-05-01T18:06:09.022Z,41.20
2018-05-01T18:08:36.491Z,40.90
2018-05-01T18:11:04.711Z,41.20
2018-05-01T18:13:32.174Z,41.10
2018-05-01T18:15:59.647Z,41.20
2018-05-01T18:18:27.111Z,41.30
2018-05-01T18:20:54.692Z,41.70
2018-05-01T18:23:22.970Z,41.60
2018-05-01T18:25:50.414Z,41.50
2018-05-01T18:28:17.945Z,41.50
2018-05-01T18:30:45.399Z,41.90
2018-05-01T18:33:12.870Z,41.90
2018-05-01T18:35:40.757Z,42.30
2018-05-01T18:38:08.218Z,42.10
2018-05-01T18:40:36.538Z,42.10
2018-05-01T18:43:04.996Z,42.00
2018-05-01T18:45:33.487Z,42.20
2018-05-01T18:48:01.004Z,42.40
2018-05-01T18:50:30.188Z,43.00
2018-05-01T18:52:56.187Z,43.60
2018-05-01T18:55:23.664Z,43.80
2018-05-01T18:57:51.195Z,43.70
2018-05-01T19:00:18.595Z,44.00
2018-05-01T19:02:46.407Z,43.90
2018-05-01T19:05:13.862Z,43.70
2018-05-01T19:07:41.395Z,44.00
2018-05-01T19:10:09.766Z,44.60
2018-05-01T19:12:38.395Z,44.90
2018-05-01T19:15:05.940Z,44.80
2018-05-01T19:17:33.501Z,45.40
2018-05-01T19:20:01.175Z,45.40
2018-05-01T19:22:29.367Z,45.90
2018-05-01T19:24:57.201Z,45.90
2018-05-01T19:27:24.659Z,46.70
2018-05-01T19:29:52.124Z,47.00
2018-05-01T19:32:19.616Z,47.10
2018-05-01T19:34:47.083Z,47.20
2018-05-01T19:37:14.548Z,47.50
2018-05-01T19:39:42.844Z,47.80
2018-05-01T19:42:11.075Z,47.70
2018-05-01T19:44:38.550Z,47.70
2018-05-01T19:47:06.802Z,47.60
2018-05-01T19:49:34.259Z,47.60
2018-05-01T19:52:01.827Z,48.10
2018-05-01T19:54:29.391Z,48.70
2018-05-01T19:56:56.948Z,49.10
2018-05-01T19:59:24.426Z,49.20
2018-05-01T20:01:52.659Z,49.50
2018-05-01T20:04:20.119Z,49.40
2018-05-01T20:06:47.578Z,49.70
2018-05-01T20:09:15.308Z,49.80
2018-05-01T20:11:42.768Z,49.50
2018-05-01T20:14:10.318Z,49.50
2018-05-01T20:16:37.707Z,50.20
2018-05-01T20:19:05.166Z,49.80
2018-05-01T20:21:32.735Z,49.60
2018-05-01T20:24:00.959Z,50.70
2018-05-01T20:26:28.419Z,50.70
2018-05-01T20:28:55.890Z,50.40
2018-05-01T20:31:23.383Z,50.50
2018-05-01T20:33:50.839Z,50.20
2018-05-01T20:36:18.318Z,50.20
2018-05-01T20:38:46.558Z,50.80
2018-05-01T20:41:14.124Z,50.70
2018-05-01T20:43:41.593Z,51.10
2018-05-01T20:46:09.052Z,51.40
2018-05-01T20:48:36.511Z,51.50
2018-05-01T20:51:04.747Z,52.60
2018-05-01T20:53:32.207Z,52.00
2018-05-01T20:55:59.966Z,52.20
2018-05-01T20:58:27.446Z,52.20
2018-05-01T21:00:54.915Z,52.20
2018-05-01T21:03:22.467Z,52.30
2018-05-01T21:05:49.982Z,52.40
2018-05-01T21:08:17.452Z,52.40
2018-05-01T21:10:44.914Z,52.90
2018-05-01T21:13:12.379Z,53.10
2018-05-01T21:15:39.844Z,53.20
2018-05-01T21:18:08.031Z,53.20
2018-05-01T21:20:35.583Z,53.10
2018-05-01T21:23:03.062Z,52.80
2018-05-01T21:25:32.091Z,53.30
2018-05-01T21:27:59.559Z,53.20
2018-05-01T21:30:27.051Z,53.30
2018-05-01T21:32:54.528Z,53.00
2018-05-01T21:35:23.392Z,53.00
2018-05-01T21:37:50.892Z,53.00
2018-05-01T21:40:18.346Z,53.30
2018-05-01T21:42:45.865Z,53.80
2018-05-01T21:45:13.362Z,53.90
2018-05-01T21:47:40.885Z,54.50
2018-05-01T21:50:08.339Z,54.50
2018-05-01T21:52:35.810Z,54.40
2018-05-01T21:55:04.107Z,55.30
2018-05-01T21:57:31.622Z,55.30
2018-05-01T21:59:59.087Z,55.80
2018-05-01T22:02:26.642Z,56.20
2018-05-01T22:04:54.204Z,57.00
2018-05-01T22:07:21.681Z,57.50
2018-05-01T22:09:49.915Z,57.40
2018-05-01T22:12:17.450Z,57.40
2018-05-01T22:14:45.938Z,57.60
2018-05-01T22:17:13.431Z,58.10
2018-05-01T22:19:41.127Z,58.20
2018-05-01T22:22:08.659Z,58.50
2018-05-01T22:24:36.122Z,58.80
2018-05-01T22:27:03.731Z,59.10
2018-05-01T22:29:31.386Z,59.00
2018-05-01T22:31:58.847Z,58.90
2018-05-01T22:34:26.355Z,59.40
2018-05-01T22:36:53.806Z,59.40
2018-05-01T22:39:21.363Z,59.50
2018-05-01T22:41:48.923Z,59.40
2018-05-01T22:44:16.384Z,59.60
2018-05-01T22:46:43.843Z,59.90
2018-05-01T22:49:12.090Z,60.20
2018-05-01T22:51:39.558Z,60.20
2018-05-01T22:54:07.020Z,60.70
2018-05-01T22:56:34.482Z,61.10
2018-05-01T22:59:01.967Z,61.60
2018-05-01T23:01:29.428Z,62.30
2018-05-01T23:03:56.901Z,61.60
2018-05-01T23:06:24.358Z,62.00
2018-05-01T23:08:51.857Z,62.60
2018-05-01T23:11:19.318Z,63.00
2018-05-01T23:13:46.782Z,63.20
2018-05-01T23:16:15.006Z,64.30
2018-05-01T23:18:42.506Z,63.80
2018-05-01T23:21:10.092Z,63.30
2018-05-01T23:23:38.323Z,63.80
2018-05-01T23:26:05.835Z,63.70
2018-05-01T23:28:33.360Z,64.40
2018-05-01T23:31:00.914Z,64.80
2018-05-01T23:33:28.470Z,64.80
2018-05-01T23:35:56.032Z,64.90
2018-05-01T23:38:23.496Z,65.50
2018-05-01T23:40:51.042Z,66.00
2018-05-01T23:43:18.650Z,66.40
2018-05-01T23:45:46.163Z,66.00
2018-05-01T23:48:13.624Z,66.00
2018-05-01T23:50:41.083Z,66.50
2018-05-01T23:53:08.632Z,66.50
2018-05-01T23:55:36.087Z,66.20
2018-05-01T23:58:03.651Z,66.30
